Time;durP1;ratioP1;P1;durP2;ratioP2;P2;SDS_P1;SDS_P2;PMS_P1;PMS_P2;Temp;Humidity;BMP_temperature;BMP_pressure;BME280_temperature;BME280_humidity;BME280_pressure;Samples;Min_cycle;Max_cycle;Signal;HPM_P1;HPM_P2
2022/06/12 00:01:40;;;;;;;15.40;13.80;;;15.80;99.90;15.30;100822;;;;577173;245;24058;-79
2022/06/12 00:04:08;;;;;;;17.33;14.23;;;15.80;99.90;15.20;100822;;;;577246;245;24054;-80
2022/06/12 00:06:35;;;;;;;17.37;12.70;;;15.70;99.90;15.20;100824;;;;577076;245;24155;-82
2022/06/12 00:09:03;;;;;;;15.23;12.53;;;15.70;99.90;15.20;100822;;;;576783;246;24035;-79
2022/06/12 00:11:33;;;;;;;17.13;12.77;;;15.70;99.90;15.20;100812;;;;576980;246;24040;-79
2022/06/12 00:13:59;;;;;;;17.07;12.17;;;15.70;99.90;15.20;100820;;;;577057;246;24093;-80
2022/06/12 00:16:30;;;;;;;22.13;14.00;;;15.70;99.90;15.20;100814;;;;576832;246;24036;-81
2022/06/12 00:18:56;;;;;;;15.10;13.50;;;15.70;99.90;15.20;100806;;;;576453;246;24087;-81
2022/06/12 00:21:24;;;;;;;18.10;13.67;;;15.70;99.90;15.20;100818;;;;576740;246;24066;-81
2022/06/12 00:23:57;;;;;;;16.70;13.10;;;15.70;99.90;15.20;100814;;;;576634;246;24066;-80
2022/06/12 00:26:31;;;;;;;25.37;14.47;;;15.70;99.90;15.10;100813;;;;576261;246;24059;-80
2022/06/12 00:29:00;;;;;;;22.70;13.87;;;15.70;99.90;15.10;100809;;;;575484;246;25108;-79
2022/06/12 00:31:29;;;;;;;15.97;14.23;;;15.70;99.90;15.10;100810;;;;571130;246;24050;-77
2022/06/12 00:33:57;;;;;;;17.27;13.17;;;15.70;99.90;15.10;100806;;;;576362;246;24051;-81
2022/06/12 00:36:26;;;;;;;17.03;13.67;;;15.70;99.90;15.10;100810;;;;576094;246;24054;-80
2022/06/12 00:38:54;;;;;;;19.47;14.77;;;15.60;99.90;15.10;100808;;;;575986;246;24075;-80
2022/06/12 00:41:22;;;;;;;19.90;15.00;;;15.60;99.90;15.10;100808;;;;576129;246;24066;-80
2022/06/12 00:43:50;;;;;;;21.10;15.07;;;15.60;99.90;15.10;100804;;;;575995;246;24127;-80
2022/06/12 00:46:40;;;;;;;17.97;15.27;;;15.60;99.90;15.00;100809;;;;576185;246;24036;-80
2022/06/12 00:49:07;;;;;;;17.17;12.93;;;15.60;99.90;15.00;100805;;;;575958;242;24067;-79
2022/06/12 00:51:35;;;;;;;14.63;13.13;;;15.60;99.90;15.00;100802;;;;575456;246;24094;-80
2022/06/12 00:54:06;;;;;;;17.53;13.60;;;15.50;99.90;14.90;100806;;;;576342;246;24060;-80
2022/06/12 00:56:31;;;;;;;17.47;13.63;;;15.50;99.90;14.80;100803;;;;575915;246;25124;-81
2022/06/12 00:58:59;;;;;;;18.00;13.33;;;15.40;99.90;14.80;100806;;;;570776;246;24088;-79
2022/06/12 01:01:33;;;;;;;13.27;11.97;;;15.40;99.90;14.70;100803;;;;576521;245;24116;-80
2022/06/12 01:06:47;;;;;;;12.63;11.00;;;15.20;99.90;14.60;100796;;;;577188;245;24027;-80
2022/06/12 01:09:15;;;;;;;13.00;11.13;;;15.10;99.90;14.50;100796;;;;576746;245;24147;-79
2022/06/12 01:11:44;;;;;;;11.93;10.37;;;15.10;99.90;14.40;100794;;;;571637;245;24066;-80
2022/06/12 01:14:11;;;;;;;10.70;9.40;;;15.00;99.90;14.40;100785;;;;576492;245;24067;-81
2022/06/12 01:16:44;;;;;;;10.87;9.87;;;15.00;99.90;14.40;100783;;;;576409;245;24036;-81
2022/06/12 01:19:06;;;;;;;13.70;9.87;;;14.90;99.90;14.40;100777;;;;579425;246;24087;-80
2022/06/12 01:21:46;;;;;;;9.87;8.80;;;14.90;99.90;14.30;100781;;;;576201;246;24040;-80
2022/06/12 01:24:29;;;;;;;10.57;9.47;;;14.90;99.90;14.30;100764;;;;565948;246;24086;-80
2022/06/12 01:27:12;;;;;;;14.73;9.97;;;14.90;99.90;14.30;100766;;;;576188;246;24211;-80
2022/06/12 01:29:51;;;;;;;12.33;10.07;;;14.90;99.90;14.30;100770;;;;567579;246;24081;-80
2022/06/12 01:32:22;;;;;;;17.62;15.90;;;14.80;99.90;14.20;100766;;;;570121;246;34978;-81
2022/06/12 01:34:56;;;;;;;16.30;13.27;;;14.80;99.90;14.20;100767;;;;573291;246;24086;-80
2022/06/12 01:37:37;;;;;;;12.27;11.07;;;14.80;99.90;14.20;100770;;;;576058;246;24055;-80
2022/06/12 01:40:16;;;;;;;14.40;11.87;;;14.80;99.90;14.20;100764;;;;576240;246;24044;-83
2022/06/12 01:42:52;;;;;;;14.23;11.47;;;14.80;99.90;14.20;100773;;;;575641;246;25144;-82
2022/06/12 01:45:55;;;;;;;12.10;10.93;;;14.80;99.90;14.20;100764;;;;574927;246;24086;-81
2022/06/12 01:48:42;;;;;;;14.83;12.50;;;14.70;99.90;14.10;100759;;;;576484;246;24121;-81
2022/06/12 01:51:13;;;;;;;11.33;10.23;;;14.70;99.90;14.10;100763;;;;572288;246;24156;-83
2022/06/12 01:54:03;;;;;;;12.97;11.23;;;14.70;99.90;14.10;100781;;;;575828;246;24068;-80
2022/06/12 01:56:48;;;;;;;14.90;11.50;;;14.70;99.90;14.10;100782;;;;575644;246;24056;-82
2022/06/12 01:59:25;;;;;;;12.10;10.90;;;14.60;99.90;14.10;100780;;;;576261;246;24167;-82
2022/06/12 02:02:13;;;;;;;15.20;11.60;;;14.60;99.90;14.00;100777;;;;576199;246;24064;-83
2022/06/12 02:04:59;;;;;;;17.30;11.47;;;14.60;99.90;14.00;100778;;;;576008;246;24073;-81
2022/06/12 02:07:39;;;;;;;11.60;10.53;;;14.60;99.90;14.00;100783;;;;571595;246;24118;-84
2022/06/12 02:10:23;;;;;;;12.30;11.00;;;14.60;99.90;14.00;100783;;;;584859;245;24053;-82
2022/06/12 02:15:46;;;;;;;12.20;10.93;;;14.60;99.90;14.00;100782;;;;577515;245;24071;-81
2022/06/12 02:18:19;;;;;;;14.03;10.77;;;14.60;99.90;14.00;100778;;;;580427;245;24071;-80
2022/06/12 02:20:47;;;;;;;12.70;11.40;;;14.60;99.90;14.00;100772;;;;577030;245;24065;-82
2022/06/12 02:23:21;;;;;;;14.23;12.70;;;14.60;99.90;14.00;100784;;;;576810;245;24051;-81
2022/06/12 02:25:52;;;;;;;15.63;12.67;;;14.60;99.90;14.10;100777;;;;576755;245;27276;-80
2022/06/12 02:28:17;;;;;;;20.20;12.37;;;14.60;99.90;14.10;100781;;;;576826;245;24050;-83
2022/06/12 02:30:45;;;;;;;15.53;12.37;;;14.60;99.90;14.10;100779;;;;576785;246;24039;-84
2022/06/12 02:33:22;;;;;;;16.33;12.17;;;14.60;99.90;14.10;100783;;;;576131;246;24065;-81
2022/06/12 02:35:53;;;;;;;14.83;12.60;;;14.50;99.90;14.10;100781;;;;571343;246;24066;-80
2022/06/12 02:38:35;;;;;;;15.63;12.87;;;14.70;99.90;14.10;100782;;;;575840;246;24183;-80
2022/06/12 02:41:40;;;;;;;18.37;13.90;;;14.70;99.90;14.10;100781;;;;576569;246;24047;-77
2022/06/12 02:44:09;;;;;;;16.60;13.10;;;14.70;99.90;14.10;100787;;;;577421;246;24063;-80
2022/06/12 02:46:48;;;;;;;19.17;13.90;;;14.70;99.90;14.10;100785;;;;576614;246;24103;-82
2022/06/12 02:49:16;;;;;;;19.40;14.57;;;14.70;99.90;14.10;100782;;;;570428;246;24149;-81
2022/06/12 02:51:59;;;;;;;18.17;15.33;;;14.70;99.90;14.10;100787;;;;576540;246;24062;-80
2022/06/12 02:54:32;;;;;;;18.77;15.07;;;14.70;99.90;14.10;100789;;;;563619;251;24223;-80
2022/06/12 02:57:07;;;;;;;16.70;14.90;;;14.70;99.90;14.10;100788;;;;576362;246;24046;-80
2022/06/12 02:59:56;;;;;;;16.90;14.77;;;14.70;99.90;14.20;100785;;;;577228;246;24073;-77
2022/06/12 03:02:39;;;;;;;21.10;14.70;;;14.70;99.90;14.20;100788;;;;580642;246;24057;-80
2022/06/12 03:05:20;;;;;;;18.50;14.40;;;14.70;99.90;14.20;100789;;;;568843;251;24127;-78
2022/06/12 03:07:46;;;;;;;17.03;14.90;;;14.80;99.90;14.20;100789;;;;586467;245;24066;-79
2022/06/12 03:10:14;;;;;;;17.83;15.87;;;14.80;99.90;14.30;100789;;;;576402;246;24051;-81
2022/06/12 03:12:42;;;;;;;18.80;16.30;;;14.80;99.90;14.50;100797;;;;576320;246;24032;-83
2022/06/12 03:15:11;;;;;;;20.73;15.40;;;15.00;99.90;15.00;100801;;;;576409;246;24036;-81
2022/06/12 03:17:38;;;;;;;23.77;16.67;;;15.50;99.90;15.70;100800;;;;574359;246;24044;-80
2022/06/12 03:20:06;;;;;;;16.57;14.77;;;16.00;99.90;16.20;100793;;;;576385;246;24086;-79
2022/06/12 03:22:35;;;;;;;16.47;14.57;;;17.00;99.90;16.60;100803;;;;576377;246;24037;-79
2022/06/12 03:25:18;;;;;;;18.03;13.53;;;17.60;99.90;17.10;100801;;;;576989;245;24090;-80
2022/06/12 03:28:10;;;;;;;14.67;12.27;;;17.50;99.90;17.60;100799;;;;577196;245;24087;-79
2022/06/12 03:30:47;;;;;;;13.23;11.33;;;18.10;99.90;18.20;100799;;;;580315;245;24102;-80
2022/06/12 03:33:21;;;;;;;11.67;10.37;;;18.70;99.90;18.80;100814;;;;571290;245;24046;-81
2022/06/12 03:35:54;;;;;;;15.10;9.80;;;19.30;99.90;19.40;100815;;;;576292;245;24102;-80
2022/06/12 03:38:25;;;;;;;9.93;8.93;;;20.00;99.90;19.80;100818;;;;570893;245;24033;-82
2022/06/12 03:41:21;;;;;;;9.20;7.07;;;20.60;99.90;20.40;100814;;;;576211;245;24040;-81
2022/06/12 03:43:54;;;;;;;11.30;6.67;;;21.20;99.90;21.00;100817;;;;576463;246;24079;-81
2022/06/12 03:46:40;;;;;;;8.30;5.73;;;21.90;99.90;21.60;100817;;;;576135;246;24078;-82
2022/06/12 03:49:11;;;;;;;9.30;5.47;;;22.50;99.90;22.10;100808;;;;576484;241;24039;-81
2022/06/12 03:51:42;;;;;;;9.47;5.17;;;23.00;99.90;22.60;100802;;;;576467;246;24093;-81
2022/06/12 03:54:19;;;;;;;10.37;5.60;;;23.50;99.90;23.10;100799;;;;576631;246;24046;-80
2022/06/12 03:59:55;;;;;;;9.90;5.03;;;25.40;99.90;24.40;100803;;;;576660;246;23142;-82
2022/06/12 04:02:23;;;;;;;6.63;4.20;;;25.90;99.90;24.90;100802;;;;575866;246;23122;-81
2022/06/12 04:04:51;;;;;;;7.87;4.60;;;25.90;99.90;25.40;100798;;;;576036;246;24085;-80
2022/06/12 04:07:20;;;;;;;9.60;4.27;;;26.40;99.90;25.90;100797;;;;576268;246;23086;-81
2022/06/12 04:09:48;;;;;;;6.83;4.40;;;27.40;99.90;26.30;100802;;;;576093;246;23097;-80
2022/06/12 04:12:31;;;;;;;5.97;4.23;;;27.40;99.90;26.90;100800;;;;575897;246;23072;-81
2022/06/12 04:15:13;;;;;;;9.00;3.63;;;27.90;99.90;27.40;100802;;;;575722;246;23058;-83
2022/06/12 04:17:41;;;;;;;7.20;3.50;;;28.50;99.90;27.90;100799;;;;573311;246;23058;-82
2022/06/12 04:20:17;;;;;;;6.12;3.40;;;29.00;99.90;28.40;100798;;;;576060;246;23092;-81
2022/06/12 04:22:58;;;;;;;6.07;3.50;;;29.50;98.50;29.00;100802;;;;576249;246;23093;-80
2022/06/12 04:25:28;;;;;;;4.90;3.35;;;30.20;92.20;29.40;100800;;;;575951;246;23067;-81
2022/06/12 04:27:56;;;;;;;6.47;3.50;;;30.50;89.20;29.50;100806;;;;576076;246;23090;-79
2022/06/12 04:30:24;;;;;;;7.62;4.00;;;30.80;88.30;30.00;100804;;;;576120;246;23132;-79
2022/06/12 04:32:57;;;;;;;9.68;3.70;;;31.20;85.20;30.40;100801;;;;569847;246;23112;-79
2022/06/12 04:35:25;;;;;;;8.52;3.05;;;31.60;87.60;31.10;100804;;;;575643;244;23067;-79
2022/06/12 04:37:57;;;;;;;7.22;3.47;;;32.20;77.30;31.30;100802;;;;577920;245;23094;-79
2022/06/12 04:40:24;;;;;;;6.70;3.75;;;32.50;73.60;31.70;100803;;;;571784;245;25136;-79
2022/06/12 04:42:53;;;;;;;6.05;2.95;;;33.00;73.20;32.20;100809;;;;577102;245;23118;-80
2022/06/12 04:45:23;;;;;;;8.38;3.22;;;33.40;71.20;32.60;100813;;;;577137;245;24125;-80
2022/06/12 04:47:48;;;;;;;6.05;3.50;;;33.90;68.20;32.90;100817;;;;576813;245;23064;-79
2022/06/12 04:50:16;;;;;;;5.28;3.15;;;34.20;67.50;33.30;100819;;;;584721;241;24100;-80
2022/06/12 04:52:44;;;;;;;6.32;3.08;;;35.20;61.90;33.90;100825;;;;584634;244;23065;-80
2022/06/12 04:55:12;;;;;;;5.32;3.20;;;35.20;61.70;34.50;100827;;;;584301;244;23147;-79
2022/06/12 04:57:40;;;;;;;6.53;3.15;;;35.80;60.20;35.10;100825;;;;584390;244;23061;-78
2022/06/12 05:00:13;;;;;;;6.90;3.47;;;36.80;56.00;35.60;100826;;;;584304;244;24074;-79
2022/06/12 05:02:37;;;;;;;6.80;3.10;;;36.80;56.00;35.80;100826;;;;584066;245;24056;-80
2022/06/12 05:05:08;;;;;;;9.75;3.60;;;37.20;55.30;36.30;100833;;;;584328;244;23081;-81
2022/06/12 05:07:33;;;;;;;6.60;3.00;;;37.60;53.90;36.80;100823;;;;583913;246;23076;-80
2022/06/12 05:10:00;;;;;;;5.12;2.92;;;38.10;53.00;37.10;100832;;;;584412;244;23065;-82
2022/06/12 05:12:29;;;;;;;4.65;2.78;;;39.00;51.10;37.80;100833;;;;584075;244;23061;-83
2022/06/12 05:15:00;;;;;;;6.65;3.00;;;38.90;51.00;38.30;100839;;;;584126;244;24073;-84
2022/06/12 05:17:28;;;;;;;4.82;2.95;;;39.60;49.80;39.20;100831;;;;583684;245;23093;-80
2022/06/12 05:19:54;;;;;;;9.63;3.08;;;40.70;48.10;39.50;100838;;;;583833;244;23055;-80
2022/06/12 05:22:23;;;;;;;5.75;2.72;;;40.60;47.90;39.60;100843;;;;584067;244;23087;-81
2022/06/12 05:24:49;;;;;;;6.90;2.90;;;40.90;46.80;39.90;100835;;;;583885;245;23112;-82
2022/06/12 05:27:17;;;;;;;5.55;2.60;;;41.00;45.90;40.50;100843;;;;584122;244;23100;-81
2022/06/12 05:29:49;;;;;;;5.15;2.50;;;41.90;44.10;40.80;100835;;;;583893;245;23122;-80
2022/06/12 05:32:14;;;;;;;7.32;3.45;;;41.80;44.00;41.00;100836;;;;583886;245;23098;-81
2022/06/12 05:34:42;;;;;;;5.90;3.03;;;42.20;44.10;41.00;100843;;;;584389;244;23073;-80
2022/06/12 05:37:10;;;;;;;7.45;3.17;;;42.20;43.10;41.10;100830;;;;584445;244;23084;-81
2022/06/12 05:39:38;;;;;;;8.90;3.97;;;42.20;43.00;41.50;100831;;;;584473;244;23075;-81
2022/06/12 05:42:07;;;;;;;8.45;3.92;;;42.40;41.60;41.50;100829;;;;583988;244;23074;-81
2022/06/12 05:44:35;;;;;;;10.40;5.03;;;42.80;42.10;41.90;100834;;;;584083;244;23088;-82
2022/06/12 05:47:06;;;;;;;7.62;3.37;;;42.80;41.80;42.60;100850;;;;584182;244;23050;-84
2022/06/12 05:49:33;;;;;;;8.73;3.47;;;43.30;40.30;42.80;100847;;;;585276;241;23119;-84
2022/06/12 05:51:59;;;;;;;5.28;2.33;;;43.80;41.20;43.00;100850;;;;584870;245;23071;-83
2022/06/12 05:54:27;;;;;;;5.12;2.78;;;43.80;41.00;43.30;100848;;;;584825;244;23131;-80
2022/06/12 05:56:55;;;;;;;5.85;2.67;;;44.00;39.50;43.80;100850;;;;584828;244;23125;-82
2022/06/12 05:59:23;;;;;;;6.05;3.00;;;44.50;39.30;44.30;100855;;;;584521;244;23065;-81
2022/06/12 06:01:51;;;;;;;6.47;3.42;;;45.20;38.40;44.40;100855;;;;584705;244;23109;-82
2022/06/12 06:04:19;;;;;;;6.95;3.03;;;45.20;38.40;44.50;100863;;;;584542;245;23106;-81
2022/06/12 06:06:52;;;;;;;5.75;2.53;;;45.20;38.70;45.00;100866;;;;584435;244;23167;-80
2022/06/12 06:09:20;;;;;;;7.62;3.37;;;45.50;36.80;44.80;100858;;;;579169;244;34978;-80
2022/06/12 06:11:49;;;;;;;7.25;2.92;;;45.60;36.60;45.00;100860;;;;584113;246;23135;-80
2022/06/12 06:14:19;;;;;;;5.30;2.95;;;45.60;36.60;45.40;100854;;;;584415;244;23084;-81
2022/06/12 06:16:45;;;;;;;5.78;2.45;;;46.00;36.40;45.60;100860;;;;584055;244;23073;-80
2022/06/12 06:19:12;;;;;;;7.10;2.78;;;46.20;36.70;45.90;100864;;;;584671;244;23093;-80
2022/06/12 06:21:41;;;;;;;7.07;2.92;;;47.00;35.30;46.50;100863;;;;584770;244;23105;-80
2022/06/12 06:24:09;;;;;;;5.87;2.62;;;47.00;35.20;46.40;100861;;;;584457;244;23098;-80
2022/06/12 06:26:37;;;;;;;5.75;2.40;;;47.20;34.50;46.30;100856;;;;561962;254;23165;-80
2022/06/12 06:29:05;;;;;;;6.95;3.15;;;47.00;35.30;46.60;100864;;;;583973;245;24138;-83
2022/06/12 06:31:37;;;;;;;5.25;2.70;;;47.20;35.00;46.60;100866;;;;584196;244;23149;-81
2022/06/12 06:34:01;;;;;;;5.68;2.60;;;47.20;34.70;46.70;100863;;;;583550;245;23070;-83
2022/06/12 06:36:28;;;;;;;4.72;2.58;;;47.20;34.60;46.80;100862;;;;584371;245;23080;-83
2022/06/12 06:38:59;;;;;;;4.32;2.60;;;47.30;34.10;46.90;100870;;;;584611;244;23067;-81
2022/06/12 06:41:28;;;;;;;5.35;2.78;;;47.30;33.80;46.80;100873;;;;583953;245;23054;-82
2022/06/12 06:46:38;;;;;;;3.85;2.60;;;47.50;33.30;46.40;100859;;;;584460;244;23085;-85
2022/06/12 06:49:06;;;;;;;6.03;2.28;;;47.10;32.70;46.60;100863;;;;584075;242;23126;-85
2022/06/12 06:51:37;;;;;;;5.57;2.67;;;47.10;33.10;47.20;100871;;;;583970;244;23117;-81
2022/06/12 06:54:01;;;;;;;6.15;2.50;;;47.50;32.80;47.20;100872;;;;583706;245;23083;-80
2022/06/12 06:56:29;;;;;;;4.32;2.30;;;47.60;32.30;46.80;100870;;;;583985;244;23077;-81
2022/06/12 06:58:57;;;;;;;3.85;2.30;;;47.30;32.70;46.80;100877;;;;584554;244;23119;-82
2022/06/12 07:01:25;;;;;;;5.53;2.50;;;47.10;32.80;46.90;100870;;;;585377;244;23112;-81
2022/06/12 07:03:53;;;;;;;12.85;11.52;;;47.20;33.20;47.20;100875;;;;585373;244;23085;-81
2022/06/12 07:06:21;;;;;;;7.03;3.00;;;47.40;33.30;47.80;100866;;;;584906;244;23120;-81
2022/06/12 07:08:49;;;;;;;4.57;2.50;;;48.30;32.20;48.10;100869;;;;584550;245;23080;-80
2022/06/12 07:11:18;;;;;;;4.28;2.33;;;48.30;31.50;48.20;100860;;;;584649;244;24126;-81
2022/06/12 07:13:45;;;;;;;4.03;2.00;;;48.40;31.40;48.30;100868;;;;584483;244;23164;-80
2022/06/12 07:16:16;;;;;;;5.72;2.60;;;48.60;30.80;47.80;100861;;;;579583;244;34979;-82
2022/06/12 07:18:46;;;;;;;4.28;1.98;;;47.80;31.40;47.20;100864;;;;584067;245;23086;-80
2022/06/12 07:21:13;;;;;;;4.82;2.03;;;47.70;31.30;47.00;100875;;;;583678;245;23080;-80
2022/06/12 07:23:41;;;;;;;4.07;1.85;;;47.40;31.40;47.30;100864;;;;583913;245;23062;-81
2022/06/12 07:26:06;;;;;;;6.20;2.60;;;47.80;32.20;47.70;100865;;;;583943;245;23058;-80
2022/06/12 07:28:34;;;;;;;5.60;2.55;;;47.70;31.30;48.00;100869;;;;583411;245;23049;-80
2022/06/12 07:31:02;;;;;;;6.50;2.40;;;48.00;31.70;48.80;100868;;;;584274;245;23093;-79
2022/06/12 07:33:31;;;;;;;4.82;2.10;;;49.40;30.80;49.30;100879;;;;584730;244;23085;-81
2022/06/12 07:35:58;;;;;;;5.18;2.60;;;49.40;30.30;49.30;100865;;;;584115;244;23066;-80
2022/06/12 07:38:26;;;;;;;5.22;2.47;;;49.60;30.00;49.20;100873;;;;584355;244;23097;-82
2022/06/12 07:40:57;;;;;;;5.72;2.78;;;49.50;30.30;49.00;100870;;;;584342;245;23066;-80
2022/06/12 07:43:25;;;;;;;3.90;2.35;;;49.40;30.20;48.50;100877;;;;584433;244;23066;-81
2022/06/12 07:45:53;;;;;;;4.78;2.58;;;49.00;30.20;48.50;100872;;;;584379;245;23124;-80
2022/06/12 07:48:21;;;;;;;4.65;2.33;;;48.70;30.40;48.60;100870;;;;584313;245;23107;-81
2022/06/12 07:50:49;;;;;;;5.82;2.22;;;48.70;30.70;49.10;100880;;;;583967;242;23075;-80
2022/06/12 07:53:20;;;;;;;4.40;2.45;;;49.10;30.30;49.40;100876;;;;584138;244;23109;-81
2022/06/12 07:55:48;;;;;;;4.75;2.22;;;49.40;30.60;50.00;100887;;;;583720;244;23119;-81
2022/06/12 07:58:13;;;;;;;3.70;2.50;;;50.00;29.50;50.40;100888;;;;583756;245;23061;-81
2022/06/12 08:00:41;;;;;;;4.47;2.53;;;50.60;29.30;50.70;100886;;;;584005;244;23061;-81
2022/06/12 08:03:08;;;;;;;3.62;1.83;;;51.00;28.80;50.40;100882;;;;584018;245;23054;-79
2022/06/12 08:05:36;;;;;;;3.15;1.73;;;50.90;28.90;49.90;100881;;;;584063;244;23085;-80
2022/06/12 08:08:07;;;;;;;4.32;1.75;;;50.40;28.50;49.60;100886;;;;583978;244;23119;-80
2022/06/12 08:10:32;;;;;;;2.78;2.10;;;50.10;28.60;49.60;100879;;;;584497;244;23088;-82
2022/06/12 08:13:00;;;;;;;4.00;1.98;;;49.80;28.50;49.30;100880;;;;585409;244;23093;-79
2022/06/12 08:15:31;;;;;;;4.75;2.12;;;49.80;28.50;48.40;100882;;;;584809;245;24116;-78
2022/06/12 08:17:59;;;;;;;2.97;1.90;;;49.20;28.50;47.60;100890;;;;584578;245;23097;-80
2022/06/12 08:20:30;;;;;;;2.03;1.80;;;48.30;28.70;47.00;100885;;;;584221;244;23105;-80
2022/06/12 08:23:29;;;;;;;1.98;1.60;;;47.10;29.20;46.60;100885;;;;584344;244;23058;-80
2022/06/12 08:26:04;;;;;;;2.30;1.58;;;47.10;29.20;45.90;100890;;;;584863;245;23061;-81
2022/06/12 08:28:35;;;;;;;3.55;1.58;;;46.40;29.80;45.80;100884;;;;584359;245;26311;-80
2022/06/12 08:31:03;;;;;;;2.72;1.30;;;46.10;30.10;45.90;100885;;;;583674;245;23116;-82
2022/06/12 08:33:34;;;;;;;2.60;1.70;;;46.10;30.00;46.50;100888;;;;584204;244;23067;-81
2022/06/12 08:35:58;;;;;;;3.78;1.70;;;46.50;29.80;47.00;100889;;;;584062;244;23066;-80
2022/06/12 08:38:27;;;;;;;17.87;16.42;;;47.20;28.90;46.80;100897;;;;584325;244;24145;-81
2022/06/12 08:41:19;;;;;;;2.72;1.90;;;47.20;28.90;47.00;100900;;;;584689;244;23061;-79
2022/06/12 08:44:05;;;;;;;3.12;1.80;;;47.40;28.70;46.70;100891;;;;584438;245;23062;-79
2022/06/12 08:46:36;;;;;;;4.60;1.73;;;47.10;28.80;46.60;100890;;;;584290;245;23088;-81
2022/06/12 08:49:16;;;;;;;3.03;1.50;;;47.00;29.00;46.80;100896;;;;583768;241;23061;-82
2022/06/12 08:51:44;;;;;;;4.32;1.42;;;47.10;28.90;46.90;100882;;;;584349;245;23084;-81
2022/06/12 08:54:12;;;;;;;2.15;1.67;;;47.30;28.80;47.60;100894;;;;584043;245;23055;-79
2022/06/12 08:56:42;;;;;;;1.80;1.70;;;47.80;29.20;48.30;100889;;;;583727;245;23077;-81
2022/06/12 08:59:16;;;;;;;1.40;1.25;;;48.50;29.20;48.60;100897;;;;583916;245;23171;-80
2022/06/12 09:01:44;;;;;;;5.12;1.75;;;49.00;28.30;48.70;100892;;;;584450;244;23077;-81
2022/06/12 09:04:14;;;;;;;2.85;1.48;;;49.40;28.40;48.50;100898;;;;584441;244;23130;-81
2022/06/12 09:06:57;;;;;;;2.08;1.80;;;49.40;28.50;48.70;100895;;;;584392;244;23115;-79
2022/06/12 09:09:50;;;;;;;2.40;1.75;;;49.90;28.40;49.10;100892;;;;584168;246;23062;-79
2022/06/12 09:12:27;;;;;;;1.65;1.48;;;50.30;28.10;49.60;100902;;;;575151;245;23167;-80
2022/06/12 09:15:00;;;;;;;2.47;1.30;;;50.30;28.10;50.00;100894;;;;584334;245;23073;-79
2022/06/12 09:18:10;;;;;;;2.37;1.90;;;50.60;28.10;50.50;100883;;;;583235;245;23066;-79
2022/06/12 09:20:56;;;;;;;2.85;1.73;;;51.30;27.40;50.80;100892;;;;583712;245;23117;-81
2022/06/12 09:23:33;;;;;;;5.85;1.70;;;51.80;27.10;50.50;100890;;;;585335;244;23088;-80
2022/06/12 09:26:07;;;;;;;2.75;1.83;;;51.60;27.50;50.80;100889;;;;584898;245;23120;-81
2022/06/12 09:29:14;;;;;;;2.90;1.80;;;51.70;27.40;51.10;100884;;;;584447;245;23104;-81
2022/06/12 09:31:45;;;;;;;3.03;1.60;;;52.20;27.60;51.60;100872;;;;582819;245;23073;-82
2022/06/12 09:34:33;;;;;;;4.80;2.15;;;52.70;27.90;50.60;100877;;;;584224;245;23172;-82
2022/06/12 09:38:18;;;;;;;2.92;1.87;;;52.20;27.40;50.40;100875;;;;576351;244;23097;-80
2022/06/12 09:39:50;;;;;;;3.40;1.87;;;51.60;28.20;49.70;100878;;;;583170;245;23074;-84
2022/06/12 09:42:25;;;;;;;2.03;1.75;;;50.70;27.60;49.80;100879;;;;584282;245;23049;-81
2022/06/12 09:45:13;;;;;;;1.40;1.35;;;50.80;27.60;50.10;100877;;;;583854;245;23093;-83
2022/06/12 09:48:20;;;;;;;2.25;1.80;;;51.00;27.50;50.30;100871;;;;584125;245;23069;-82
2022/06/12 09:51:06;;;;;;;4.30;2.05;;;51.30;27.50;49.00;100868;;;;584367;241;23181;-81
2022/06/12 09:53:49;;;;;;;3.92;2.30;;;50.40;27.70;47.50;100869;;;;584935;244;23128;-81
2022/06/12 09:56:31;;;;;;;5.68;2.20;;;49.10;27.90;46.60;100872;;;;581226;246;23045;-82
2022/06/12 09:59:05;;;;;;;3.72;1.73;;;47.80;28.30;46.60;100865;;;;584150;245;23096;-86
2022/06/12 10:01:35;;;;;;;4.60;1.85;;;47.40;29.00;47.20;100869;;;;584284;245;23086;-81
2022/06/12 10:04:17;;;;;;;2.58;1.83;;;47.60;29.40;48.10;100869;;;;584416;244;23078;-82
2022/06/12 10:07:00;;;;;;;3.05;1.80;;;48.60;29.30;46.80;100867;;;;584584;245;24099;-82
2022/06/12 10:09:39;;;;;;;1.98;1.80;;;48.10;28.50;45.40;100867;;;;584513;245;23112;-83
2022/06/12 10:12:11;;;;;;;7.97;2.00;;;45.70;30.00;44.60;100861;;;;584111;245;23058;-85
2022/06/12 10:14:45;;;;;;;2.85;1.83;;;45.70;29.90;44.40;100860;;;;584382;244;23088;-82
2022/06/12 10:17:25;;;;;;;3.30;1.90;;;45.30;30.00;43.70;100862;;;;584094;245;23065;-83
2022/06/12 10:20:10;;;;;;;5.68;1.98;;;44.60;30.40;42.80;100865;;;;583905;246;23112;-84
2022/06/12 10:22:43;;;;;;;3.33;1.67;;;43.70;31.20;41.60;100859;;;;584122;245;23065;-84
2022/06/12 10:25:09;;;;;;;4.00;1.83;;;42.70;32.00;40.50;100861;;;;584317;245;23083;-84
2022/06/12 10:27:52;;;;;;;6.03;1.87;;;41.50;32.80;39.20;100856;;;;583479;246;23116;-81
2022/06/12 10:30:31;;;;;;;7.62;2.22;;;40.10;33.70;38.10;100860;;;;584373;245;23050;-83
2022/06/12 10:33:00;;;;;;;5.93;1.75;;;37.70;36.10;37.00;100861;;;;583608;245;23061;-81
2022/06/12 10:35:28;;;;;;;3.92;1.70;;;37.70;36.10;36.70;100864;;;;584722;244;23153;-83
2022/06/12 10:37:56;;;;;;;3.97;2.55;;;37.10;37.20;36.80;100856;;;;585296;244;23077;-81
2022/06/12 10:40:28;;;;;;;3.42;1.50;;;36.70;38.10;36.40;100844;;;;583823;244;24093;-81
2022/06/12 10:43:02;;;;;;;3.33;1.77;;;36.70;38.10;35.40;100844;;;;584482;244;24090;-82
2022/06/12 10:45:42;;;;;;;6.37;2.60;;;36.00;37.90;34.50;100843;;;;584638;245;23081;-82
2022/06/12 10:48:21;;;;;;;2.62;1.83;;;35.00;39.60;34.10;100838;;;;584522;245;23065;-80
2022/06/12 10:50:54;;;;;;;1.67;1.30;;;34.50;40.10;33.70;100845;;;;580395;243;23028;-81
2022/06/12 10:53:26;;;;;;;5.18;1.77;;;33.90;40.70;33.20;100843;;;;584297;245;24114;-80
2022/06/12 10:56:25;;;;;;;2.70;1.27;;;33.50;41.50;32.40;100824;;;;584306;246;23300;-81
2022/06/12 10:59:02;;;;;;;4.70;2.10;;;32.80;41.70;31.60;100820;;;;584886;244;23138;-80
2022/06/12 11:01:42;;;;;;;4.00;2.08;;;31.60;44.40;31.40;100818;;;;582332;246;23077;-80
2022/06/12 11:04:19;;;;;;;6.68;2.05;;;31.50;44.30;30.90;100813;;;;584307;245;23085;-81
2022/06/12 11:06:56;;;;;;;6.03;1.55;;;30.90;45.10;30.60;100816;;;;584125;246;23112;-80
2022/06/12 11:09:27;;;;;;;2.67;1.20;;;30.80;45.00;30.20;100816;;;;584000;245;23083;-81
2022/06/12 11:12:13;;;;;;;5.43;1.92;;;30.60;45.50;29.90;100820;;;;583232;246;24102;-82
2022/06/12 11:15:08;;;;;;;2.40;1.30;;;30.20;46.50;29.60;100819;;;;583212;245;23066;-81
2022/06/12 11:17:45;;;;;;;5.47;1.70;;;29.80;47.00;29.50;100811;;;;584278;244;23082;-83
2022/06/12 11:20:21;;;;;;;4.10;2.20;;;29.70;46.90;29.70;100808;;;;579314;244;34930;-82
2022/06/12 11:22:54;;;;;;;5.87;1.90;;;29.90;47.30;29.50;100816;;;;583931;245;23054;-81
2022/06/12 11:26:02;;;;;;;4.05;2.00;;;29.80;47.80;29.00;100816;;;;583828;245;24070;-82
2022/06/12 11:28:51;;;;;;;4.83;1.80;;;29.50;48.00;28.40;100799;;;;584661;244;23075;-81
2022/06/12 11:31:43;;;;;;;5.20;1.60;;;28.90;49.20;28.10;100795;;;;584114;244;23117;-80
2022/06/12 11:34:12;;;;;;;3.83;1.40;;;28.30;49.30;27.90;100791;;;;584214;244;23069;-80
2022/06/12 11:37:00;;;;;;;5.97;1.80;;;28.20;49.20;27.90;100786;;;;583271;246;23070;-80
2022/06/12 11:39:41;;;;;;;6.30;2.20;;;28.20;50.30;28.00;100791;;;;584097;244;23104;-81
2022/06/12 11:42:16;;;;;;;2.87;1.60;;;28.30;50.80;28.10;100781;;;;583991;245;23082;-80
2022/06/12 11:44:59;;;;;;;2.87;1.60;;;28.40;51.20;28.00;100791;;;;584486;245;24049;-80